KBGM/BGM METAR and TAF weather

Enter ICAO airport designator
Station Type Date Time Source
KBGM METAR 2019/02/23 16:53 UTC NOAA

KBGM 231653Z 13007KT 10SM CLR M01/M07 A3032 RMK AO2 SLP287 T10111067


Station Type Date Time Source
KBGM Decoded METAR 2019/02/23 16:53 UTC NOAA

BINGHAMTON REGIONAL AIRPORT, NY, United States (KBGM) 42-12N 75-59W 492M
Feb 23, 2019 - 11:53 AM EST / 2019.02.23 1653 UTC
Wind: from the SE (130 degrees) at 8 MPH (7 KT):0
Visibility: 10 mile(s):0
Sky conditions: clear
Temperature: 30.0 F (-1.1 C)
Windchill: 23 F (-5 C):1
Dew Point: 19.9 F (-6.7 C)
Relative Humidity: 65%
Pressure (altimeter): 30.32 in. Hg (1026 hPa)
ob: KBGM 231653Z 13007KT 10SM CLR M01/M07 A3032 RMK AO2 SLP287 T10111067
cycle: 17

Station Type Date Time Source
KBGM TAF 2019/02/23 18:22 UTC NOAA

TAF KBGM 231720Z 2318/2418 16007KT P6SM BKN250
FM240300 15011G19KT P6SM OVC019
FM240700 16012G20KT 2SM -RA OVC011
FM241300 16015G26KT 4SM -RA OVC008 WS020/17050KT
FM241700 19015G26KT P6SM OVC009 WS007/18015KT


Example: see airport list